Time;durP1;ratioP1;P1;durP2;ratioP2;P2;SDS_P1;SDS_P2;PMS_P1;PMS_P2;Temp;Humidity;BMP_temperature;BMP_pressure;BME280_temperature;BME280_humidity;BME280_pressure;Samples;Min_cycle;Max_cycle;Signal;HPM_P1;HPM_P2
2021/08/16 00:00:15;;;;;;;15.85;14.20;;;;;;;23.77;59.53;98375.29;2278310;78;20905;-81
2021/08/16 00:03:18;;;;;;;16.02;14.45;;;;;;;23.74;59.37;98366.98;2258032;78;20896;-82
2021/08/16 00:06:18;;;;;;;15.03;13.72;;;;;;;23.69;59.48;98361.48;2278088;78;21020;-81
2021/08/16 00:09:19;;;;;;;15.43;14.03;;;;;;;23.67;59.74;98353.56;2278087;78;21020;-80
2021/08/16 00:12:19;;;;;;;17.48;14.93;;;;;;;23.70;59.74;98347.22;2278220;78;20927;-80
2021/08/16 00:15:20;;;;;;;16.40;14.87;;;;;;;23.70;59.79;98344.55;2278068;78;20917;-81
2021/08/16 00:18:20;;;;;;;17.30;15.50;;;;;;;23.71;59.85;98349.80;2277987;78;20924;-80
2021/08/16 00:21:21;;;;;;;17.37;15.32;;;;;;;23.68;59.90;98340.63;2278022;78;20893;-82
2021/08/16 00:24:21;;;;;;;16.95;15.35;;;;;;;23.41;60.63;98344.12;2277887;78;21366;-80
2021/08/16 00:27:22;;;;;;;16.17;14.60;;;;;;;23.38;60.76;98346.05;2278321;78;20905;-81
2021/08/16 00:30:22;;;;;;;17.25;15.40;;;;;;;23.40;61.00;98342.84;2278197;78;20964;-81
2021/08/16 00:33:23;;;;;;;16.90;14.28;;;;;;;23.18;61.14;98345.66;2278190;78;20897;-81
2021/08/16 00:36:23;;;;;;;17.37;15.88;;;;;;;23.17;61.69;98343.93;2277997;78;21324;-81
2021/08/16 00:39:24;;;;;;;20.08;15.70;;;;;;;23.16;61.64;98343.06;2278209;78;20943;-79
2021/08/16 00:42:24;;;;;;;18.35;14.70;;;;;;;23.16;61.72;98340.41;2277843;78;20896;-79
2021/08/16 00:45:25;;;;;;;16.50;14.90;;;;;;;23.20;61.96;98349.11;2278061;78;20905;-80
2021/08/16 00:48:26;;;;;;;17.95;14.90;;;;;;;23.26;61.83;98345.30;2278051;78;20959;-80
2021/08/16 00:51:27;;;;;;;16.93;15.32;;;;;;;23.30;61.75;98340.22;2278173;78;20882;-82
2021/08/16 00:54:28;;;;;;;17.25;14.98;;;;;;;23.33;61.93;98344.06;2277955;78;20912;-82
2021/08/16 00:57:28;;;;;;;17.87;14.40;;;;;;;23.35;61.62;98332.41;2278133;78;20951;-80
2021/08/16 01:00:29;;;;;;;21.75;14.47;;;;;;;23.34;61.67;98325.82;2278245;78;20924;-81
2021/08/16 01:03:29;;;;;;;16.00;14.28;;;;;;;23.31;61.81;98322.84;2278180;78;20901;-81
2021/08/16 01:06:30;;;;;;;16.93;13.98;;;;;;;23.09;61.97;98324.79;2278047;78;20992;-80
2021/08/16 01:09:30;;;;;;;14.78;13.25;;;;;;;23.08;62.14;98316.41;2278043;78;20940;-80
2021/08/16 01:12:31;;;;;;;16.27;14.38;;;;;;;23.06;62.19;98311.63;2278027;78;20932;-81
2021/08/16 01:15:33;;;;;;;14.43;13.13;;;;;;;23.07;62.17;98320.88;2277628;78;21288;-80
2021/08/16 01:18:33;;;;;;;15.32;13.68;;;;;;;23.05;62.06;98318.75;2278323;78;20909;-81
2021/08/16 01:21:34;;;;;;;15.90;13.60;;;;;;;23.09;62.26;98316.80;2278172;78;20897;-82
2021/08/16 01:24:34;;;;;;;15.63;14.00;;;;;;;22.94;62.11;98310.87;2278178;78;21320;-80
2021/08/16 01:27:35;;;;;;;17.02;14.20;;;;;;;22.80;62.40;98297.73;2278099;78;20904;-81
2021/08/16 01:30:35;;;;;;;17.50;13.50;;;;;;;22.81;62.64;98304.78;2278182;78;20967;-82
2021/08/16 01:33:36;;;;;;;17.10;13.75;;;;;;;22.79;62.41;98295.98;2278192;78;20893;-80
2021/08/16 01:36:37;;;;;;;14.43;13.03;;;;;;;22.76;62.85;98290.80;2277771;78;20964;-80
2021/08/16 01:39:37;;;;;;;14.98;13.58;;;;;;;22.74;62.77;98287.34;2278113;78;20909;-80
2021/08/16 01:42:38;;;;;;;20.90;14.55;;;;;;;22.72;62.64;98286.55;2278195;78;21320;-81
2021/08/16 01:45:39;;;;;;;15.68;14.20;;;;;;;22.68;62.79;98278.31;2278261;78;20917;-81
2021/08/16 01:48:40;;;;;;;16.80;15.00;;;;;;;22.68;62.79;98278.31;2277886;78;21445;-81
2021/08/16 01:51:40;;;;;;;15.85;14.28;;;;;;;22.57;63.37;98280.59;2278107;78;20955;-80
2021/08/16 01:54:41;;;;;;;16.37;14.68;;;;;;;22.58;63.34;98283.66;2278156;78;20900;-81
2021/08/16 01:57:42;;;;;;;49.23;19.05;;;;;;;22.54;63.54;98270.06;2278300;78;21277;-80
2021/08/16 02:00:42;;;;;;;17.40;15.15;;;;;;;22.58;63.75;98257.52;2278349;78;21225;-81
2021/08/16 02:03:43;;;;;;;16.05;14.33;;;;;;;22.75;63.69;98237.66;2278284;78;20964;-80
2021/08/16 02:06:43;;;;;;;16.35;14.38;;;;;;;22.73;63.23;98231.55;2278639;78;20964;-81
2021/08/16 02:09:44;;;;;;;16.77;15.15;;;;;;;22.65;63.32;98215.94;2278216;78;20912;-82
2021/08/16 02:12:44;;;;;;;16.60;14.90;;;;;;;22.48;63.37;98211.84;2278125;78;20885;-82
2021/08/16 02:15:44;;;;;;;25.02;15.08;;;;;;;22.40;64.04;98216.18;2278109;78;20945;-81
2021/08/16 02:18:45;;;;;;;26.95;15.28;;;;;;;22.47;64.25;98230.92;2278421;78;21319;-81
2021/08/16 02:21:45;;;;;;;20.82;15.43;;;;;;;22.62;63.82;98237.36;2278339;78;20897;-82
2021/08/16 02:24:46;;;;;;;16.77;14.95;;;;;;;22.59;63.91;98242.83;2279717;78;20992;-82
2021/08/16 02:27:47;;;;;;;65.60;18.37;;;;;;;22.73;64.00;98240.86;2281634;78;20901;-79
2021/08/16 02:30:47;;;;;;;44.63;17.80;;;;;;;22.82;63.85;98266.59;2282176;77;20948;-81
2021/08/16 02:33:48;;;;;;;33.80;19.45;;;;;;;22.66;64.80;98306.78;2282593;77;20904;-82
2021/08/16 02:36:48;;;;;;;36.42;18.98;;;;;;;22.49;65.97;98374.00;2282288;77;20976;-83
2021/08/16 02:39:49;;;;;;;26.90;14.90;;;;;;;21.85;69.22;98334.18;2282468;77;21223;-82
2021/08/16 02:42:49;;;;;;;16.48;12.07;;;;;;;21.26;74.26;98323.30;2282341;77;20896;-82
2021/08/16 02:45:50;;;;;;;14.70;9.18;;;;;;;20.93;73.05;98307.73;2282444;77;20909;-83
2021/08/16 02:48:51;;;;;;;12.88;7.33;;;;;;;20.67;75.17;98311.33;2282174;77;20987;-83
2021/08/16 02:51:51;;;;;;;17.87;8.00;;;;;;;20.35;76.10;98311.61;2282194;77;21323;-82
2021/08/16 02:54:52;;;;;;;16.25;8.15;;;;;;;20.14;75.31;98290.72;2282140;77;20905;-81
2021/08/16 02:57:52;;;;;;;9.65;8.58;;;;;;;20.04;76.36;98314.48;2282319;78;21280;-82
2021/08/16 03:00:53;;;;;;;15.65;9.33;;;;;;;19.97;76.56;98311.63;2282224;77;20877;-83
2021/08/16 03:03:53;;;;;;;9.15;7.92;;;;;;;19.89;78.05;98309.67;2282068;77;20943;-82
2021/08/16 03:06:54;;;;;;;16.30;9.20;;;;;;;19.76;77.86;98265.98;2281836;78;20964;-82
2021/08/16 03:09:54;;;;;;;9.28;7.30;;;;;;;19.53;78.29;98257.05;2282012;77;21056;-81
2021/08/16 03:12:55;;;;;;;6.03;4.83;;;;;;;19.38;78.98;98240.31;2282167;77;20924;-82
2021/08/16 03:15:55;;;;;;;8.55;5.33;;;;;;;19.32;78.22;98245.35;2282214;78;21301;-81
2021/08/16 03:18:56;;;;;;;5.00;4.50;;;;;;;19.31;77.68;98220.27;2282159;77;20912;-81
2021/08/16 03:21:56;;;;;;;7.25;4.22;;;;;;;19.29;77.38;98215.48;2282287;77;20924;-82
2021/08/16 03:24:57;;;;;;;10.90;4.97;;;;;;;19.30;76.80;98210.59;2280634;77;20952;-82
2021/08/16 03:27:57;;;;;;;9.03;4.67;;;;;;;19.27;76.78;98204.95;2278420;78;20912;-83
2021/08/16 03:30:58;;;;;;;7.47;4.55;;;;;;;19.22;77.12;98190.14;2278455;78;20915;-82
2021/08/16 03:33:58;;;;;;;14.98;7.10;;;;;;;19.16;77.19;98181.95;2278536;78;20913;-82
2021/08/16 03:36:59;;;;;;;8.00;5.75;;;;;;;19.51;79.78;98187.83;2278603;78;20963;-81
2021/08/16 03:39:59;;;;;;;8.68;5.42;;;;;;;20.65;77.40;98188.55;2278379;78;21359;-82
2021/08/16 03:43:00;;;;;;;7.83;5.60;;;;;;;21.43;74.24;98169.97;2278659;78;20925;-82
2021/08/16 03:46:00;;;;;;;6.30;5.08;;;;;;;21.95;72.24;98183.20;2279068;78;20967;-81
2021/08/16 03:49:01;;;;;;;5.58;4.60;;;;;;;22.28;71.16;98186.16;2279122;78;20932;-83
2021/08/16 03:52:01;;;;;;;5.03;4.22;;;;;;;22.45;69.88;98186.25;2279117;78;20916;-83
2021/08/16 03:55:02;;;;;;;5.35;4.08;;;;;;;22.56;69.65;98189.77;2279083;78;20909;-83
2021/08/16 03:58:02;;;;;;;4.70;4.15;;;;;;;22.61;68.98;98198.87;2279136;78;21396;-82
2021/08/16 04:01:03;;;;;;;6.95;4.62;;;;;;;22.46;67.89;98212.38;2280502;78;20947;-82
2021/08/16 04:04:04;;;;;;;13.15;7.72;;;;;;;21.06;70.68;98297.97;2279055;78;20901;-83
2021/08/16 04:07:04;;;;;;;13.58;8.73;;;;;;;20.21;73.76;98296.20;2278837;78;21070;-84
2021/08/16 04:10:05;;;;;;;10.88;8.48;;;;;;;19.84;75.15;98315.13;2278696;78;21396;-83
2021/08/16 04:13:05;;;;;;;10.63;7.28;;;;;;;19.57;76.96;98323.53;2278581;78;20944;-83
2021/08/16 04:16:06;;;;;;;10.98;9.18;;;;;;;19.52;76.08;98329.85;2278437;78;20917;-83
2021/08/16 04:19:06;;;;;;;10.38;9.23;;;;;;;19.47;76.87;98301.34;2277924;78;20923;-83
2021/08/16 04:22:07;;;;;;;10.28;9.28;;;;;;;19.34;76.07;98288.97;2277911;78;20912;-83
2021/08/16 04:25:07;;;;;;;10.45;9.38;;;;;;;19.38;76.19;98286.17;2278126;78;20987;-85
2021/08/16 04:28:08;;;;;;;12.43;9.88;;;;;;;19.43;76.04;98286.02;2278634;78;21307;-83
2021/08/16 04:31:08;;;;;;;9.98;8.93;;;;;;;19.52;76.03;98279.56;2277984;78;20917;-83
2021/08/16 04:34:08;;;;;;;9.35;8.48;;;;;;;19.38;76.67;98282.66;2277695;78;20992;-84
2021/08/16 04:37:09;;;;;;;11.68;8.38;;;;;;;19.29;77.53;98290.89;2275979;78;20968;-82
2021/08/16 04:40:09;;;;;;;11.68;9.23;;;;;;;19.24;77.12;98263.72;2276714;78;20900;-82
2021/08/16 04:43:10;;;;;;;10.45;8.30;;;;;;;19.38;76.95;98274.27;2278196;78;21300;-81
2021/08/16 04:46:10;;;;;;;9.75;8.75;;;;;;;19.55;77.80;98280.36;2277754;78;21304;-82
2021/08/16 04:49:11;;;;;;;11.33;8.55;;;;;;;19.93;77.62;98275.08;2277744;78;20948;-84
2021/08/16 04:52:11;;;;;;;13.35;8.55;;;;;;;20.16;76.81;98245.16;2278381;78;20936;-83
2021/08/16 04:55:12;;;;;;;11.00;8.58;;;;;;;20.32;76.70;98227.77;2278168;78;21126;-82
2021/08/16 04:58:12;;;;;;;9.15;8.13;;;;;;;20.95;76.88;98232.06;2278220;78;20955;-82
2021/08/16 05:01:13;;;;;;;10.30;8.28;;;;;;;21.53;75.42;98227.92;2278277;78;20924;-79
2021/08/16 05:04:13;;;;;;;11.05;7.55;;;;;;;22.01;73.82;98237.41;2278172;78;21595;-79
2021/08/16 05:07:14;;;;;;;10.72;6.85;;;;;;;22.27;72.49;98241.59;2276637;78;20995;-79
2021/08/16 05:10:15;;;;;;;11.73;7.15;;;;;;;22.55;72.00;98239.45;2277377;78;20916;-79
2021/08/16 05:13:15;;;;;;;8.38;7.60;;;;;;;22.23;68.88;98234.69;2277687;78;20912;-80
2021/08/16 05:16:16;;;;;;;10.13;7.15;;;;;;;21.61;70.65;98237.76;2277315;78;20956;-77
2021/08/16 05:19:16;;;;;;;9.45;7.20;;;;;;;21.68;71.09;98248.16;2277567;78;20944;-79
2021/08/16 05:22:17;;;;;;;11.15;8.25;;;;;;;21.87;73.19;98248.63;2278170;78;21307;-79
2021/08/16 05:25:17;;;;;;;10.90;8.23;;;;;;;22.44;72.71;98260.78;2278158;77;21015;-80
2021/08/16 05:28:18;;;;;;;9.50;7.60;;;;;;;22.86;70.82;98269.98;2277061;78;20959;-79
2021/08/16 05:31:19;;;;;;;16.87;8.40;;;;;;;22.87;69.30;98301.84;2277273;78;21288;-77
2021/08/16 05:34:19;;;;;;;15.98;9.88;;;;;;;22.66;69.39;98338.70;2277487;78;20920;-78
2021/08/16 05:37:20;;;;;;;24.00;10.58;;;;;;;22.70;69.47;98368.23;2276974;78;20983;-79
2021/08/16 05:40:20;;;;;;;15.78;8.45;;;;;;;22.69;68.92;98369.16;2276044;78;20936;-77
2021/08/16 05:43:21;;;;;;;11.88;7.87;;;;;;;22.68;68.21;98362.58;2277436;78;20936;-75
2021/08/16 05:46:21;;;;;;;10.93;8.60;;;;;;;22.63;67.66;98349.48;2278002;78;20913;-78
2021/08/16 05:49:22;;;;;;;11.90;7.83;;;;;;;22.58;68.55;98343.50;2277288;78;21575;-79
2021/08/16 05:52:23;;;;;;;8.08;7.25;;;;;;;22.70;68.21;98337.63;2277275;78;20908;-78
2021/08/16 05:55:23;;;;;;;7.50;6.62;;;;;;;22.77;67.65;98305.83;2277218;78;21312;-78
2021/08/16 05:58:24;;;;;;;8.40;6.20;;;;;;;22.83;67.44;98295.40;2276807;78;20972;-78
2021/08/16 06:01:24;;;;;;;7.60;6.47;;;;;;;22.75;67.68;98294.39;2276643;78;20897;-79
2021/08/16 06:04:25;;;;;;;7.92;6.40;;;;;;;22.75;67.68;98294.39;2276958;78;20917;-77
2021/08/16 06:07:25;;;;;;;9.65;6.15;;;;;;;22.93;66.78;98313.13;2277128;78;21336;-78
2021/08/16 06:10:26;;;;;;;7.22;6.22;;;;;;;23.04;66.63;98318.35;2276236;78;20984;-78
2021/08/16 06:13:27;;;;;;;9.73;5.92;;;;;;;22.46;65.67;98304.98;2275958;78;21288;-78
2021/08/16 06:16:27;;;;;;;12.13;6.30;;;;;;;21.63;67.36;98300.11;2276917;78;20944;-78
2021/08/16 06:19:28;;;;;;;11.53;6.95;;;;;;;21.93;69.79;98312.60;2275880;78;20904;-77
2021/08/16 06:22:30;;;;;;;10.48;6.95;;;;;;;22.42;68.66;98302.53;2276431;78;20901;-82
2021/08/16 06:25:30;;;;;;;10.08;7.00;;;;;;;22.83;68.47;98294.93;2277840;78;21092;-77
2021/08/16 06:28:31;;;;;;;7.60;6.10;;;;;;;23.25;67.74;98299.17;2281082;77;20947;-77
2021/08/16 06:31:31;;;;;;;8.63;7.12;;;;;;;23.55;66.51;98280.03;2281569;78;20928;-78
2021/08/16 06:34:32;;;;;;;9.05;6.67;;;;;;;23.69;66.25;98273.55;2281673;77;20901;-78
2021/08/16 06:37:32;;;;;;;7.42;6.22;;;;;;;23.90;65.71;98267.13;2281558;77;21015;-79
2021/08/16 06:40:33;;;;;;;7.78;6.42;;;;;;;24.10;64.80;98260.77;2280977;77;20916;-77
2021/08/16 06:43:33;;;;;;;7.67;6.70;;;;;;;24.33;64.57;98269.83;2280850;77;21323;-78
2021/08/16 06:46:34;;;;;;;7.12;6.50;;;;;;;24.62;63.75;98280.75;2280258;77;21355;-78
2021/08/16 06:49:34;;;;;;;10.25;7.33;;;;;;;24.91;62.54;98272.48;2280154;77;20948;-78
2021/08/16 06:52:35;;;;;;;8.58;6.70;;;;;;;25.19;61.74;98271.41;2281048;77;20927;-78
2021/08/16 06:55:35;;;;;;;7.05;6.35;;;;;;;25.31;62.17;98273.86;2280736;78;20946;-78
2021/08/16 06:58:36;;;;;;;7.10;6.47;;;;;;;25.47;61.01;98283.19;2280658;77;20952;-78
2021/08/16 07:01:36;;;;;;;10.50;6.80;;;;;;;25.49;60.78;98281.30;2280471;77;20885;-77
2021/08/16 07:04:39;;;;;;;9.35;6.58;;;;;;;25.57;60.62;98289.25;2280757;77;20907;-78
2021/08/16 07:07:39;;;;;;;10.98;7.28;;;;;;;25.66;60.86;98283.88;2279249;77;21006;-78
2021/08/16 07:10:40;;;;;;;7.05;6.35;;;;;;;25.82;60.75;98282.03;2280109;77;20956;-77
2021/08/16 07:13:40;;;;;;;6.67;5.97;;;;;;;25.98;60.21;98274.83;2280960;77;21324;-78
2021/08/16 07:16:41;;;;;;;6.40;5.85;;;;;;;26.13;59.70;98269.55;2281482;77;20916;-78
2021/08/16 07:19:41;;;;;;;6.67;6.00;;;;;;;26.01;59.52;98269.80;2281256;77;20925;-78
2021/08/16 07:22:42;;;;;;;6.35;5.72;;;;;;;26.23;59.41;98274.72;2282342;77;20946;-78
2021/08/16 07:25:42;;;;;;;6.75;5.92;;;;;;;26.47;58.30;98276.41;2282203;77;20979;-78
2021/08/16 07:28:46;;;;;;;7.70;6.00;;;;;;;26.52;57.90;98269.81;2281694;78;21347;-79
2021/08/16 07:31:46;;;;;;;6.90;5.60;;;;;;;26.63;57.14;98275.37;2281469;78;21016;-79
2021/08/16 07:34:46;;;;;;;6.83;6.12;;;;;;;26.76;56.61;98267.91;2281451;78;20925;-79
2021/08/16 07:37:47;;;;;;;8.60;6.62;;;;;;;26.81;56.30;98273.36;2280885;77;20967;-79
2021/08/16 07:40:47;;;;;;;7.33;6.08;;;;;;;26.95;56.19;98274.71;2281919;77;21241;-78
2021/08/16 07:43:48;;;;;;;7.20;6.20;;;;;;;27.08;55.70;98273.48;2281533;77;21335;-77
2021/08/16 07:46:48;;;;;;;8.03;6.33;;;;;;;27.07;55.96;98269.56;2281098;77;20975;-78
2021/08/16 07:49:49;;;;;;;10.80;6.67;;;;;;;27.22;56.43;98269.91;2279517;78;20935;-78
2021/08/16 07:52:50;;;;;;;8.83;6.67;;;;;;;27.11;56.83;98266.59;2279971;78;20925;-78
2021/08/16 07:55:51;;;;;;;8.75;7.15;;;;;;;27.28;56.77;98262.34;2279474;78;20932;-78
2021/08/16 07:58:51;;;;;;;10.35;6.53;;;;;;;27.56;56.53;98254.68;2280338;77;20897;-80
2021/08/16 08:01:52;;;;;;;10.08;6.53;;;;;;;27.76;55.90;98258.77;2282271;77;21335;-78
2021/08/16 08:04:52;;;;;;;9.35;6.37;;;;;;;27.77;55.77;98265.86;2280873;77;20920;-78
2021/08/16 08:07:53;;;;;;;10.40;7.00;;;;;;;27.81;55.77;98262.00;2280706;77;20963;-78
2021/08/16 08:10:54;;;;;;;10.95;6.60;;;;;;;28.00;55.96;98267.47;2281313;78;20916;-78
2021/08/16 08:13:54;;;;;;;9.23;6.35;;;;;;;28.03;55.69;98277.98;2282030;78;20916;-78
2021/08/16 08:16:55;;;;;;;6.67;5.90;;;;;;;28.08;55.64;98272.69;2282066;77;21284;-79
2021/08/16 08:19:56;;;;;;;8.05;5.80;;;;;;;28.08;55.16;98276.70;2281150;77;20980;-81
2021/08/16 08:22:56;;;;;;;10.53;5.62;;;;;;;28.12;54.51;98274.19;2281688;77;20932;-80
2021/08/16 08:25:57;;;;;;;8.95;5.70;;;;;;;28.10;54.08;98272.09;2279620;77;20972;-78
2021/08/16 08:28:59;;;;;;;6.45;5.58;;;;;;;28.05;53.91;98270.69;2276323;78;20940;-78
2021/08/16 08:31:59;;;;;;;9.18;5.30;;;;;;;28.09;53.72;98278.91;2277154;78;20885;-82
2021/08/16 08:35:03;;;;;;;7.83;5.33;;;;;;;28.11;52.95;98273.81;2277481;78;20920;-78
2021/08/16 08:38:03;;;;;;;7.92;6.00;;;;;;;28.13;53.13;98272.38;2277422;78;21272;-78
2021/08/16 08:41:04;;;;;;;6.45;5.53;;;;;;;28.34;53.12;98276.29;2277794;78;20929;-78
2021/08/16 08:44:09;;;;;;;7.78;5.17;;;;;;;28.41;52.15;98273.55;2277762;78;20885;-78
2021/08/16 08:47:07;;;;;;;9.33;5.78;;;;;;;28.51;52.03;98273.28;2277284;77;21667;-78
2021/08/16 08:50:07;;;;;;;10.93;5.70;;;;;;;28.62;52.43;98275.73;2277127;78;20952;-77
2021/08/16 08:53:08;;;;;;;11.48;5.45;;;;;;;28.52;52.08;98284.41;2277369;78;20924;-78
2021/08/16 08:56:11;;;;;;;13.38;6.00;;;;;;;28.57;51.96;98280.05;2277247;78;20933;-78
2021/08/16 08:59:10;;;;;;;12.88;6.35;;;;;;;28.63;52.01;98278.80;2276945;78;20989;-77
2021/08/16 09:02:14;;;;;;;8.00;6.33;;;;;;;28.65;51.92;98276.86;2276340;78;20912;-78
2021/08/16 09:05:16;;;;;;;8.05;6.42;;;;;;;28.66;51.79;98279.44;2276667;78;21363;-78
2021/08/16 09:08:16;;;;;;;9.65;6.60;;;;;;;28.68;52.38;98281.53;2277539;78;21004;-78
2021/08/16 09:11:17;;;;;;;9.85;6.62;;;;;;;28.71;52.41;98280.45;2277302;78;20987;-76
2021/08/16 09:14:17;;;;;;;11.85;6.87;;;;;;;28.81;52.50;98265.41;2277353;78;21265;-77
2021/08/16 09:17:18;;;;;;;10.80;8.15;;;;;;;28.94;52.43;98271.64;2277623;78;20873;-77
2021/08/16 09:20:18;;;;;;;11.57;7.62;;;;;;;29.10;51.90;98268.71;2277543;78;20933;-78
2021/08/16 09:23:21;;;;;;;9.18;7.70;;;;;;;29.10;51.93;98280.80;2277372;78;20948;-77
2021/08/16 09:26:21;;;;;;;13.53;8.33;;;;;;;29.24;51.49;98272.59;2277333;78;21394;-79
2021/08/16 09:29:22;;;;;;;14.07;8.28;;;;;;;29.18;51.16;98267.66;2277245;78;20937;-78
2021/08/16 09:32:23;;;;;;;16.27;9.28;;;;;;;29.17;51.96;98264.13;2277685;78;20959;-76
2021/08/16 09:35:23;;;;;;;12.43;8.38;;;;;;;29.36;51.52;98268.14;2276635;78;21248;-77
2021/08/16 09:38:26;;;;;;;13.35;7.75;;;;;;;29.42;51.28;98260.48;2276644;78;21241;-78
2021/08/16 09:41:27;;;;;;;13.62;8.18;;;;;;;29.41;50.42;98264.14;2277824;78;21011;-78
2021/08/16 09:44:28;;;;;;;13.50;8.28;;;;;;;29.40;51.29;98256.20;2275850;78;20955;-77
2021/08/16 09:47:28;;;;;;;15.03;7.62;;;;;;;29.35;51.35;98255.67;2276692;78;20967;-78
2021/08/16 09:50:29;;;;;;;12.07;7.55;;;;;;;29.34;50.82;98260.68;2276926;78;20960;-78
2021/08/16 09:53:29;;;;;;;13.08;8.00;;;;;;;29.51;50.63;98248.25;2277327;78;20940;-78
2021/08/16 09:56:30;;;;;;;14.15;8.63;;;;;;;29.52;50.05;98249.97;2277868;78;21284;-78
2021/08/16 09:59:30;;;;;;;10.08;7.87;;;;;;;29.51;49.50;98237.50;2277958;78;21386;-77
2021/08/16 10:02:31;;;;;;;9.48;7.55;;;;;;;29.55;49.28;98233.61;2277283;78;20983;-77
2021/08/16 10:05:31;;;;;;;8.25;7.45;;;;;;;29.79;49.35;98229.06;2277386;78;21717;-78
2021/08/16 10:08:32;;;;;;;9.90;7.67;;;;;;;29.99;48.67;98228.88;2277437;78;20885;-78
2021/08/16 10:11:32;;;;;;;11.15;7.08;;;;;;;30.14;48.01;98221.98;2278046;78;21283;-78
2021/08/16 10:14:33;;;;;;;10.75;7.35;;;;;;;30.00;48.37;98218.98;2278418;78;20916;-77
2021/08/16 10:17:33;;;;;;;11.48;7.20;;;;;;;30.01;48.56;98213.96;2278223;78;20924;-78
2021/08/16 10:20:34;;;;;;;9.73;8.10;;;;;;;29.96;48.40;98201.35;2277537;78;21038;-78
2021/08/16 10:23:35;;;;;;;13.93;8.00;;;;;;;29.92;48.19;98209.30;2277818;78;20988;-78
2021/08/16 10:26:36;;;;;;;20.02;8.55;;;;;;;29.91;47.17;98196.81;2277131;78;20948;-77
2021/08/16 10:29:36;;;;;;;19.57;8.00;;;;;;;29.96;47.14;98187.90;2277056;78;21346;-78
2021/08/16 10:32:37;;;;;;;19.07;8.58;;;;;;;29.93;47.96;98201.09;2277310;78;20933;-77
2021/08/16 10:35:38;;;;;;;16.27;7.70;;;;;;;30.12;47.43;98214.02;2277495;78;20986;-77
2021/08/16 10:38:38;;;;;;;18.48;8.60;;;;;;;30.33;46.96;98200.22;2277288;78;20916;-78
2021/08/16 10:41:39;;;;;;;11.90;7.90;;;;;;;30.28;46.48;98208.30;2276436;78;20943;-77
2021/08/16 10:44:40;;;;;;;11.48;6.80;;;;;;;30.29;46.55;98196.06;2276444;78;20906;-77
2021/08/16 10:47:40;;;;;;;9.00;7.08;;;;;;;30.51;46.28;98199.29;2277480;78;20952;-78
2021/08/16 10:50:41;;;;;;;11.63;7.50;;;;;;;30.55;45.72;98193.17;2276785;78;21379;-78
2021/08/16 10:53:41;;;;;;;9.25;8.28;;;;;;;30.58;46.07;98195.62;2277308;78;21279;-78
2021/08/16 10:56:42;;;;;;;12.78;8.25;;;;;;;30.62;45.44;98191.24;2277147;78;20901;-77
2021/08/16 10:59:42;;;;;;;11.95;7.65;;;;;;;30.72;45.25;98185.97;2276871;78;21060;-78
2021/08/16 11:02:43;;;;;;;11.85;7.70;;;;;;;30.94;44.84;98187.78;2277644;78;20941;-78
2021/08/16 11:05:44;;;;;;;17.52;8.40;;;;;;;31.08;44.79;98181.26;2277470;78;20901;-77
2021/08/16 11:08:44;;;;;;;11.80;7.58;;;;;;;31.08;43.78;98182.11;2277701;78;20921;-77
2021/08/16 11:11:45;;;;;;;10.43;7.75;;;;;;;31.06;43.15;98184.94;2277243;78;20947;-79
2021/08/16 11:14:48;;;;;;;11.15;8.18;;;;;;;31.06;42.59;98182.73;2277484;78;20925;-78
2021/08/16 11:17:50;;;;;;;21.82;7.70;;;;;;;30.84;42.68;98179.59;2277833;77;21020;-77
2021/08/16 11:20:50;;;;;;;;;;;;;;;30.94;42.81;98165.73;2280419;78;21011;-78
2021/08/16 11:23:51;;;;;;;11.03;7.40;;;;;;;31.02;42.00;98173.19;2277674;78;20136;-77
2021/08/16 11:26:51;;;;;;;75.83;11.43;;;;;;;31.02;41.61;98171.34;2277506;78;20960;-79
2021/08/16 11:29:55;;;;;;;10.35;5.97;;;;;;;31.06;41.76;98171.45;2278008;78;20936;-78
2021/08/16 11:33:02;;;;;;;21.57;6.72;;;;;;;31.15;40.66;98168.53;2278563;78;20963;-78
2021/08/16 11:36:02;;;;;;;12.35;6.00;;;;;;;31.28;40.22;98159.82;2278575;78;20924;-79
2021/08/16 11:39:03;;;;;;;20.57;7.17;;;;;;;31.44;40.33;98161.23;2278279;78;20991;-80
2021/08/16 11:42:03;;;;;;;8.98;6.05;;;;;;;31.64;39.13;98161.26;2276874;78;20943;-78
2021/08/16 11:45:04;;;;;;;8.80;5.60;;;;;;;31.75;39.53;98156.33;2276163;78;20939;-78
2021/08/16 11:48:04;;;;;;;10.05;5.72;;;;;;;31.76;39.39;98161.23;2277237;78;20921;-79
2021/08/16 11:51:05;;;;;;;15.25;6.92;;;;;;;31.76;38.79;98157.19;2277358;78;20941;-79
2021/08/16 11:54:05;;;;;;;13.50;6.15;;;;;;;31.73;39.69;98154.75;2277933;78;20952;-78
2021/08/16 11:57:06;;;;;;;10.08;5.75;;;;;;;31.80;39.35;98141.95;2278066;78;20909;-78
2021/08/16 12:00:07;;;;;;;11.22;5.80;;;;;;;31.84;39.11;98146.59;2278239;78;20917;-79
2021/08/16 12:03:08;;;;;;;11.80;5.90;;;;;;;31.77;39.11;98140.01;2278086;78;20931;-78
2021/08/16 12:06:08;;;;;;;9.18;5.60;;;;;;;31.68;39.28;98134.88;2277097;78;21064;-81
2021/08/16 12:09:09;;;;;;;13.20;5.70;;;;;;;31.59;39.60;98132.96;2277763;78;20948;-80
2021/08/16 12:12:09;;;;;;;12.58;5.35;;;;;;;31.66;39.14;98130.10;2276941;78;20951;-78
2021/08/16 12:15:14;;;;;;;13.72;6.28;;;;;;;31.70;38.42;98121.28;2277136;78;20944;-78
2021/08/16 12:18:12;;;;;;;11.55;4.80;;;;;;;31.76;39.54;98120.76;2277262;78;20969;-81
2021/08/16 12:21:13;;;;;;;9.98;4.80;;;;;;;31.80;38.49;98118.16;2277586;78;21462;-81
2021/08/16 12:24:13;;;;;;;9.60;4.90;;;;;;;31.82;38.69;98113.48;2277849;78;20952;-82
2021/08/16 12:27:14;;;;;;;7.90;5.33;;;;;;;31.83;38.58;98119.24;2277322;78;20941;-81
2021/08/16 12:30:15;;;;;;;10.60;5.10;;;;;;;31.82;37.98;98112.13;2277121;78;20929;-78
2021/08/16 12:33:15;;;;;;;8.73;4.30;;;;;;;31.86;37.74;98114.44;2277557;78;20904;-77
2021/08/16 12:36:16;;;;;;;8.95;5.00;;;;;;;31.78;37.93;98116.94;2277387;78;20956;-81
2021/08/16 12:39:16;;;;;;;12.53;5.90;;;;;;;31.70;38.53;98118.59;2277671;78;20912;-80
2021/08/16 12:42:17;;;;;;;10.98;5.22;;;;;;;31.73;38.20;98108.88;2277657;78;20925;-79
2021/08/16 12:45:17;;;;;;;10.65;5.05;;;;;;;31.65;39.08;98110.86;2277714;78;20909;-80
2021/08/16 12:48:18;;;;;;;11.97;5.42;;;;;;;31.74;39.58;98115.49;2277712;78;20916;-80
2021/08/16 12:51:18;;;;;;;12.53;5.65;;;;;;;31.72;38.94;98115.27;2277731;78;20984;-80
2021/08/16 12:54:19;;;;;;;8.43;5.22;;;;;;;31.58;38.42;98115.92;2277370;78;21006;-79
2021/08/16 12:57:22;;;;;;;16.82;6.58;;;;;;;31.64;39.21;98107.80;2278242;78;20881;-80
2021/08/16 13:00:23;;;;;;;12.58;5.58;;;;;;;31.59;38.85;98100.09;2278422;78;21005;-80
2021/08/16 13:03:23;;;;;;;11.63;5.30;;;;;;;31.58;38.45;98118.62;2278392;78;21292;-79
2021/08/16 13:06:24;;;;;;;13.43;6.22;;;;;;;31.56;38.67;98123.29;2277660;78;20912;-81
2021/08/16 13:09:24;;;;;;;9.10;5.60;;;;;;;31.51;38.77;98122.83;2277986;78;20968;-80
2021/08/16 13:12:25;;;;;;;9.55;5.65;;;;;;;31.58;39.38;98121.31;2278512;78;21530;-80
2021/08/16 13:15:25;;;;;;;10.68;5.17;;;;;;;31.66;38.91;98116.13;2278524;78;20948;-79
2021/08/16 13:18:26;;;;;;;12.35;5.55;;;;;;;31.71;39.33;98114.41;2278808;78;20987;-79
2021/08/16 13:21:26;;;;;;;13.58;5.35;;;;;;;31.66;38.97;98112.08;2278527;78;20940;-81
2021/08/16 13:24:27;;;;;;;10.85;5.83;;;;;;;31.60;39.69;98103.66;2277165;78;20948;-80
2021/08/16 13:27:27;;;;;;;11.35;5.35;;;;;;;31.66;39.36;98102.63;2278274;78;20940;-79
2021/08/16 13:30:28;;;;;;;10.20;5.67;;;;;;;31.73;39.25;98101.64;2278552;78;21303;-80
2021/08/16 13:33:29;;;;;;;12.68;5.78;;;;;;;31.66;38.99;98094.54;2278652;78;21300;-81
2021/08/16 13:36:30;;;;;;;13.08;6.33;;;;;;;31.60;39.08;98088.81;2277190;78;20954;-78
2021/08/16 13:39:30;;;;;;;12.82;5.70;;;;;;;31.55;38.86;98087.86;2277455;78;20916;-79
2021/08/16 13:42:31;;;;;;;14.87;5.95;;;;;;;31.53;38.53;98089.84;2277784;78;20944;-80
2021/08/16 13:45:31;;;;;;;18.07;11.43;;;;;;;31.53;38.92;98078.19;2278027;78;20920;-77
2021/08/16 13:48:32;;;;;;;8.33;6.25;;;;;;;31.59;39.08;98077.66;2277684;78;20932;-79
2021/08/16 13:51:32;;;;;;;10.20;6.37;;;;;;;31.65;39.56;98082.04;2277470;78;20972;-80
2021/08/16 13:54:33;;;;;;;7.05;5.65;;;;;;;31.60;38.89;98080.23;2278236;78;20889;-79
2021/08/16 13:57:40;;;;;;;11.35;5.25;;;;;;;31.46;38.63;98072.47;2278409;78;20929;-81
2021/08/16 14:00:40;;;;;;;10.13;5.55;;;;;;;31.46;38.63;98072.47;2278674;78;21352;-81